createdAt,value
2018-09-17T00:01:10.188Z,5.53
2018-09-17T00:03:39.188Z,5.33
2018-09-17T00:06:07.673Z,6.25
2018-09-17T00:08:35.803Z,5.35
2018-09-17T00:11:04.081Z,5.83
2018-09-17T00:13:32.240Z,6.20
2018-09-17T00:16:00.350Z,5.67
2018-09-17T00:18:28.480Z,5.85
2018-09-17T00:20:56.630Z,6.50
2018-09-17T00:23:24.707Z,6.70
2018-09-17T00:25:52.819Z,5.37
2018-09-17T00:28:20.963Z,5.10
2018-09-17T00:30:49.165Z,5.75
2018-09-17T00:33:17.278Z,6.70
2018-09-17T00:35:45.399Z,5.83
2018-09-17T00:38:13.477Z,5.83
2018-09-17T00:40:41.587Z,5.80
2018-09-17T00:43:09.776Z,5.83
2018-09-17T00:45:37.927Z,6.03
2018-09-17T00:48:06.115Z,5.55
2018-09-17T00:50:34.213Z,5.97
2018-09-17T00:53:02.349Z,5.80
2018-09-17T00:55:30.486Z,5.60
2018-09-17T00:57:58.647Z,7.00
2018-09-17T01:00:26.756Z,5.92
2018-09-17T01:02:54.890Z,6.40
2018-09-17T01:05:23.033Z,6.00
2018-09-17T01:07:51.168Z,5.60
2018-09-17T01:10:19.248Z,6.00
2018-09-17T01:12:47.346Z,5.58
2018-09-17T01:15:15.486Z,6.00
2018-09-17T01:17:43.618Z,6.80
2018-09-17T01:20:11.788Z,5.80
2018-09-17T01:22:39.905Z,6.40
2018-09-17T01:25:08.007Z,5.50
2018-09-17T01:27:36.068Z,5.45
2018-09-17T01:30:04.169Z,5.15
2018-09-17T01:32:32.261Z,5.70
2018-09-17T01:35:00.416Z,5.45
2018-09-17T01:37:28.585Z,6.15
2018-09-17T01:39:56.857Z,5.53
2018-09-17T01:42:24.979Z,5.40
2018-09-17T01:44:53.136Z,5.90
2018-09-17T01:47:21.251Z,5.40
2018-09-17T01:49:49.380Z,6.10
2018-09-17T01:52:17.559Z,5.85
2018-09-17T01:54:45.801Z,5.80
2018-09-17T01:57:13.894Z,5.60
2018-09-17T01:59:42.063Z,5.80
2018-09-17T02:02:10.573Z,5.90
2018-09-17T02:04:39.072Z,6.63
2018-09-17T02:07:07.525Z,5.50
2018-09-17T02:09:39.813Z,6.55
2018-09-17T02:12:09.540Z,6.35
2018-09-17T02:14:37.742Z,6.37
2018-09-17T02:17:06.278Z,6.17
2018-09-17T02:19:34.451Z,5.67
2018-09-17T02:22:02.598Z,5.60
2018-09-17T02:24:30.722Z,6.10
2018-09-17T02:26:58.980Z,5.97
2018-09-17T02:29:27.111Z,5.80
2018-09-17T02:31:55.353Z,5.87
2018-09-17T02:34:23.515Z,6.20
2018-09-17T02:36:51.844Z,5.80
2018-09-17T02:39:19.963Z,6.78
2018-09-17T02:41:48.067Z,7.25
2018-09-17T02:44:16.149Z,6.15
2018-09-17T02:46:44.271Z,6.70
2018-09-17T02:49:13.027Z,6.00
2018-09-17T02:51:41.270Z,6.70
2018-09-17T02:54:09.373Z,6.47
2018-09-17T02:56:37.501Z,5.62
2018-09-17T02:59:05.732Z,5.50
2018-09-17T03:01:33.816Z,6.50
2018-09-17T03:04:01.945Z,6.20
2018-09-17T03:06:30.135Z,6.22
2018-09-17T03:08:58.255Z,5.97
2018-09-17T03:11:26.372Z,6.08
2018-09-17T03:13:54.541Z,7.10
2018-09-17T03:16:22.668Z,6.70
2018-09-17T03:18:55.455Z,6.97
2018-09-17T03:21:23.651Z,6.60
2018-09-17T03:23:51.804Z,7.33
2018-09-17T03:26:20.338Z,6.20
2018-09-17T03:28:48.879Z,5.97
2018-09-17T03:31:17.036Z,6.80
2018-09-17T03:33:45.232Z,6.88
2018-09-17T03:36:13.408Z,5.75
2018-09-17T03:45:44.024Z,6.30
2018-09-17T03:48:12.163Z,6.60
2018-09-17T03:50:40.291Z,6.70
2018-09-17T03:53:08.447Z,6.30
2018-09-17T03:55:36.567Z,6.33
2018-09-17T03:58:04.688Z,6.30
2018-09-17T04:00:32.765Z,6.50
2018-09-17T04:03:00.905Z,6.45
2018-09-17T04:05:29.024Z,6.70
2018-09-17T04:07:57.161Z,6.60
2018-09-17T04:10:25.396Z,7.17
2018-09-17T04:12:53.558Z,7.03
2018-09-17T04:15:21.764Z,6.80
2018-09-17T04:17:49.927Z,6.80
2018-09-17T04:20:18.057Z,7.55
2018-09-17T04:22:46.167Z,6.33
2018-09-17T04:25:14.860Z,7.27
2018-09-17T04:27:43.003Z,6.70
2018-09-17T04:30:11.106Z,7.50
2018-09-17T04:32:39.176Z,7.67
2018-09-17T04:35:08.003Z,6.90
2018-09-17T04:37:37.584Z,6.12
2018-09-17T04:40:05.979Z,6.47
2018-09-17T04:42:34.287Z,7.00
2018-09-17T04:45:02.364Z,7.33
2018-09-17T04:47:30.455Z,7.05
2018-09-17T04:49:58.586Z,6.90
2018-09-17T04:52:26.738Z,8.38
2018-09-17T04:54:54.895Z,6.20
2018-09-17T04:57:23.097Z,7.67
2018-09-17T04:59:51.184Z,7.37
2018-09-17T05:02:19.307Z,7.05
2018-09-17T05:04:47.454Z,7.27
2018-09-17T05:07:15.614Z,6.90
2018-09-17T05:09:43.725Z,6.60
2018-09-17T05:12:11.831Z,7.00
2018-09-17T05:14:39.955Z,6.93
2018-09-17T05:17:08.064Z,6.08
2018-09-17T05:19:36.175Z,7.53
2018-09-17T05:22:04.281Z,7.58
2018-09-17T05:24:32.376Z,7.15
2018-09-17T05:27:00.511Z,6.70
2018-09-17T05:29:28.623Z,7.40
2018-09-17T05:31:56.899Z,7.85
2018-09-17T05:34:25.043Z,7.10
2018-09-17T05:36:53.155Z,7.03
2018-09-17T05:39:21.331Z,7.35
2018-09-17T05:41:49.443Z,6.87
2018-09-17T05:44:17.682Z,7.00
2018-09-17T05:46:45.807Z,6.05
2018-09-17T05:49:13.900Z,7.40
2018-09-17T05:51:42.059Z,7.05
2018-09-17T05:54:10.245Z,7.40
2018-09-17T05:56:38.370Z,6.87
2018-09-17T05:59:06.565Z,6.47
2018-09-17T06:01:34.711Z,7.65
2018-09-17T06:11:02.312Z,7.42
2018-09-17T06:13:30.440Z,7.80
2018-09-17T06:15:58.541Z,7.47
2018-09-17T06:18:26.698Z,7.17
2018-09-17T06:20:54.827Z,6.67
2018-09-17T06:23:23.006Z,7.25
2018-09-17T06:25:51.053Z,7.50
2018-09-17T06:28:19.256Z,6.90
2018-09-17T06:30:47.382Z,8.25
2018-09-17T06:33:15.593Z,8.80
2018-09-17T06:35:43.742Z,8.57
2018-09-17T06:38:11.875Z,7.90
2018-09-17T06:40:40.008Z,8.28
2018-09-17T06:43:08.317Z,8.38
2018-09-17T06:45:36.464Z,7.87
2018-09-17T06:48:04.539Z,8.00
2018-09-17T06:50:32.757Z,8.30
2018-09-17T06:53:00.949Z,8.18
2018-09-17T06:55:29.093Z,8.30
2018-09-17T06:57:57.249Z,8.33
2018-09-17T07:00:25.447Z,8.63
2018-09-17T07:02:53.589Z,7.85
2018-09-17T07:05:21.743Z,8.65
2018-09-17T07:07:49.892Z,7.42
2018-09-17T07:10:18.022Z,7.90
2018-09-17T07:12:46.155Z,7.62
2018-09-17T07:15:14.268Z,7.57
2018-09-17T07:17:42.364Z,7.95
2018-09-17T07:20:10.467Z,8.13
2018-09-17T07:22:38.585Z,7.55
2018-09-17T07:25:06.955Z,7.42
2018-09-17T07:27:34.986Z,7.03
2018-09-17T07:30:03.130Z,7.20
2018-09-17T07:32:31.257Z,7.00
2018-09-17T07:34:59.406Z,7.33
2018-09-17T07:37:27.508Z,7.85
2018-09-17T07:39:56.119Z,6.97
2018-09-17T07:42:24.214Z,6.22
2018-09-17T07:44:52.327Z,6.17
2018-09-17T07:47:20.566Z,6.20
2018-09-17T07:49:49.730Z,6.22
2018-09-17T07:52:17.906Z,6.08
2018-09-17T07:54:46.030Z,6.30
2018-09-17T07:57:14.152Z,6.58
2018-09-17T07:59:42.278Z,6.33
2018-09-17T08:02:10.437Z,5.17
2018-09-17T08:04:38.596Z,6.60
2018-09-17T08:07:06.775Z,6.17
2018-09-17T08:09:34.889Z,6.05
2018-09-17T08:12:03.034Z,5.85
2018-09-17T08:14:31.179Z,5.60
2018-09-17T08:16:59.355Z,5.33
2018-09-17T08:19:27.404Z,5.85
2018-09-17T08:21:55.531Z,5.40
2018-09-17T08:24:23.696Z,5.57
2018-09-17T08:26:51.868Z,5.08
2018-09-17T08:29:19.991Z,4.87
2018-09-17T08:31:48.172Z,4.50
2018-09-17T08:34:16.305Z,5.60
2018-09-17T08:36:44.436Z,5.72
2018-09-17T08:39:13.675Z,5.45
2018-09-17T08:41:42.271Z,5.33
2018-09-17T08:44:11.257Z,5.97
2018-09-17T08:46:39.435Z,5.25
2018-09-17T08:49:07.718Z,5.05
2018-09-17T08:51:35.847Z,4.78
2018-09-17T08:54:03.956Z,4.87
2018-09-17T08:56:37.347Z,5.15
2018-09-17T08:59:05.979Z,4.90
2018-09-17T09:01:39.572Z,5.17
2018-09-17T09:04:17.588Z,5.35
2018-09-17T09:06:52.504Z,4.80
2018-09-17T09:09:20.610Z,5.05
2018-09-17T09:12:54.919Z,5.08
2018-09-17T09:15:27.200Z,4.60
2018-09-17T09:17:55.329Z,4.90
2018-09-17T09:20:23.446Z,5.20
2018-09-17T09:22:51.577Z,5.10
2018-09-17T09:25:19.670Z,4.77
2018-09-17T09:27:47.811Z,5.00
2018-09-17T09:30:15.957Z,4.80
2018-09-17T09:32:44.072Z,4.20
2018-09-17T09:35:12.227Z,4.50
2018-09-17T09:37:40.399Z,5.47
2018-09-17T09:40:08.500Z,4.50
2018-09-17T09:42:36.683Z,4.90
2018-09-17T09:45:04.827Z,6.73
2018-09-17T09:47:32.956Z,6.12
2018-09-17T09:50:01.094Z,4.60
2018-09-17T09:52:29.163Z,5.20
2018-09-17T09:54:57.266Z,4.50
2018-09-17T09:57:25.417Z,4.22
2018-09-17T09:59:53.520Z,5.20
2018-09-17T10:02:27.050Z,3.67
2018-09-17T10:04:55.178Z,3.10
2018-09-17T10:07:23.286Z,3.75
2018-09-17T10:09:56.905Z,3.60
2018-09-17T10:12:30.317Z,3.10
2018-09-17T10:15:03.819Z,3.40
2018-09-17T10:17:37.396Z,3.53
2018-09-17T10:20:05.794Z,3.47
2018-09-17T10:22:33.892Z,3.23
2018-09-17T10:25:02.049Z,3.70
2018-09-17T10:27:30.152Z,3.27
2018-09-17T10:29:58.374Z,2.90
2018-09-17T10:32:26.392Z,3.53
2018-09-17T10:34:54.555Z,2.73
2018-09-17T10:37:22.760Z,3.47
2018-09-17T10:39:50.900Z,2.73
2018-09-17T10:42:19.016Z,4.03
2018-09-17T10:44:47.130Z,3.47
2018-09-17T10:47:15.189Z,2.73
2018-09-17T10:49:43.359Z,3.37
2018-09-17T10:52:11.458Z,3.70
2018-09-17T10:54:39.548Z,3.37
2018-09-17T10:57:07.710Z,3.13
2018-09-17T10:59:35.817Z,3.77
2018-09-17T11:02:03.942Z,3.60
2018-09-17T11:04:32.015Z,3.40
2018-09-17T11:07:00.103Z,3.20
2018-09-17T11:09:28.429Z,2.83
2018-09-17T11:11:56.574Z,2.50
2018-09-17T11:14:24.715Z,3.50
2018-09-17T11:16:52.897Z,2.60
2018-09-17T11:19:21.014Z,2.70
2018-09-17T11:21:49.166Z,3.33
2018-09-17T11:24:17.324Z,2.80
2018-09-17T11:26:45.515Z,4.23
2018-09-17T11:29:13.684Z,2.63
2018-09-17T11:31:41.817Z,3.03
2018-09-17T11:34:09.985Z,2.63
2018-09-17T11:36:38.230Z,2.80
2018-09-17T11:39:08.106Z,3.00
2018-09-17T11:41:36.223Z,3.13
2018-09-17T11:44:04.326Z,3.10
2018-09-17T11:46:32.533Z,3.10
2018-09-17T11:49:00.619Z,4.17
2018-09-17T11:51:28.739Z,2.80
2018-09-17T11:53:56.930Z,3.50
2018-09-17T11:56:24.989Z,2.93
2018-09-17T11:58:53.074Z,2.53
2018-09-17T12:01:25.350Z,2.90
2018-09-17T12:03:59.043Z,2.77
2018-09-17T12:06:32.504Z,2.30
2018-09-17T12:09:00.517Z,2.57
2018-09-17T12:11:28.596Z,2.50
2018-09-17T12:13:56.704Z,2.90
2018-09-17T12:16:24.818Z,2.60
2018-09-17T12:18:52.904Z,2.50
2018-09-17T12:21:21.047Z,2.23
2018-09-17T12:23:49.188Z,3.43
2018-09-17T12:26:17.295Z,2.57
2018-09-17T12:28:45.408Z,2.00
2018-09-17T12:31:13.542Z,2.40
2018-09-17T12:33:42.286Z,2.30
2018-09-17T12:36:10.393Z,2.50
2018-09-17T12:38:38.498Z,2.37
2018-09-17T12:41:06.854Z,2.50
2018-09-17T12:43:34.990Z,2.40
2018-09-17T12:46:03.087Z,2.40
2018-09-17T12:48:31.161Z,2.70
2018-09-17T12:50:59.240Z,2.90
2018-09-17T12:53:27.339Z,3.00
2018-09-17T12:55:55.472Z,2.40
2018-09-17T12:58:23.521Z,2.00
2018-09-17T13:00:51.659Z,2.77
2018-09-17T13:03:19.835Z,2.73
2018-09-17T13:05:47.893Z,3.20
2018-09-17T13:08:15.991Z,3.20
2018-09-17T13:10:44.123Z,2.80
2018-09-17T13:13:12.268Z,2.30
2018-09-17T13:15:45.693Z,2.77
2018-09-17T13:18:13.895Z,2.60
2018-09-17T13:20:42.112Z,2.47
2018-09-17T13:23:10.241Z,2.70
2018-09-17T13:25:38.339Z,2.77
2018-09-17T13:28:06.540Z,2.83
2018-09-17T13:30:34.672Z,3.37
2018-09-17T13:33:02.853Z,2.53
2018-09-17T13:35:30.951Z,2.70
2018-09-17T13:37:59.103Z,2.60
2018-09-17T13:40:27.203Z,2.20
2018-09-17T13:42:55.348Z,2.83
2018-09-17T13:45:23.426Z,2.50
2018-09-17T13:47:51.520Z,2.40
2018-09-17T13:50:19.639Z,2.43
2018-09-17T13:52:47.834Z,3.30
2018-09-17T13:55:15.918Z,2.23
2018-09-17T13:57:43.991Z,2.87
2018-09-17T14:00:12.121Z,2.90
2018-09-17T14:02:40.208Z,2.50
2018-09-17T14:05:08.941Z,3.17
2018-09-17T14:07:37.203Z,2.57
2018-09-17T14:10:05.762Z,2.80
2018-09-17T14:12:33.795Z,2.60
2018-09-17T14:15:01.919Z,3.07
2018-09-17T14:17:30.108Z,2.90
2018-09-17T14:19:58.209Z,2.60
2018-09-17T14:22:26.335Z,2.13
2018-09-17T14:24:54.512Z,2.70
2018-09-17T14:27:22.624Z,2.60
2018-09-17T14:29:50.783Z,2.40
2018-09-17T14:32:24.242Z,2.87
2018-09-17T14:34:52.315Z,2.63
2018-09-17T14:37:20.408Z,2.50
2018-09-17T14:39:48.584Z,2.60
2018-09-17T14:42:16.687Z,2.57
2018-09-17T14:47:29.658Z,3.13
2018-09-17T14:49:57.753Z,2.90
2018-09-17T14:52:25.970Z,2.90
2018-09-17T14:54:53.994Z,2.60
2018-09-17T14:57:22.277Z,2.47
2018-09-17T14:59:50.418Z,2.40
2018-09-17T15:02:18.480Z,2.77
2018-09-17T15:04:46.591Z,2.30
2018-09-17T15:07:14.780Z,3.03
2018-09-17T15:09:42.924Z,3.30
2018-09-17T15:12:11.018Z,2.60
2018-09-17T15:14:39.266Z,2.63
2018-09-17T15:17:07.387Z,2.60
2018-09-17T15:19:35.537Z,2.30
2018-09-17T15:22:03.744Z,2.30
2018-09-17T15:24:31.825Z,2.60
2018-09-17T15:26:59.951Z,2.70
2018-09-17T15:29:28.096Z,2.10
2018-09-17T15:31:56.195Z,2.53
2018-09-17T15:34:24.367Z,2.70
2018-09-17T15:36:52.390Z,2.27
2018-09-17T15:39:20.593Z,2.40
2018-09-17T15:41:48.748Z,3.10
2018-09-17T15:44:17.141Z,2.20
2018-09-17T15:46:45.256Z,2.70
2018-09-17T15:49:13.500Z,3.13
2018-09-17T15:51:41.992Z,2.63
2018-09-17T15:54:10.250Z,2.80
2018-09-17T15:56:38.436Z,2.40
2018-09-17T15:59:06.719Z,2.70
2018-09-17T16:01:34.897Z,2.40
2018-09-17T16:04:03.048Z,2.60
2018-09-17T16:06:31.288Z,2.50
2018-09-17T16:08:59.483Z,2.87
2018-09-17T16:11:27.821Z,2.10
2018-09-17T16:13:55.920Z,2.80
2018-09-17T16:16:24.207Z,2.60
2018-09-17T16:18:52.524Z,2.10
2018-09-17T16:21:20.775Z,2.77
2018-09-17T16:23:49.084Z,3.30
2018-09-17T16:26:17.343Z,2.30
2018-09-17T16:28:45.584Z,2.83
2018-09-17T16:31:13.770Z,2.30
2018-09-17T16:33:42.694Z,2.70
2018-09-17T16:36:10.842Z,3.10
2018-09-17T16:38:39.009Z,3.20
2018-09-17T16:41:07.171Z,2.70
2018-09-17T16:43:35.386Z,3.20
2018-09-17T16:46:03.519Z,3.20
2018-09-17T16:48:31.660Z,3.10
2018-09-17T16:50:59.772Z,3.50
2018-09-17T16:53:28.262Z,3.00
2018-09-17T16:56:01.362Z,3.33
2018-09-17T16:58:29.758Z,2.90
2018-09-17T17:00:57.896Z,2.83
2018-09-17T17:03:25.963Z,3.37
2018-09-17T17:05:54.091Z,3.60
2018-09-17T17:08:22.177Z,3.23
2018-09-17T17:10:50.416Z,3.00
2018-09-17T17:13:18.580Z,3.00
2018-09-17T17:15:48.316Z,2.47
2018-09-17T17:18:17.679Z,2.60
2018-09-17T17:20:46.355Z,3.60
2018-09-17T17:23:14.575Z,3.70
2018-09-17T17:25:42.811Z,2.80
2018-09-17T17:28:11.061Z,3.77
2018-09-17T17:30:39.142Z,2.77
2018-09-17T17:33:07.324Z,3.27
2018-09-17T17:35:36.136Z,3.80
2018-09-17T17:38:04.230Z,2.90
2018-09-17T17:40:32.520Z,3.30
2018-09-17T17:43:00.415Z,3.90
2018-09-17T17:45:28.608Z,3.63
2018-09-17T17:47:56.723Z,4.03
2018-09-17T17:50:24.825Z,3.17
2018-09-17T17:52:52.986Z,3.52
2018-09-17T17:55:21.124Z,3.10
2018-09-17T17:57:49.210Z,3.00
2018-09-17T18:00:17.488Z,3.20
2018-09-17T18:02:45.598Z,3.10
2018-09-17T18:05:13.697Z,3.20
2018-09-17T18:07:41.834Z,2.95
2018-09-17T18:10:09.918Z,3.30
2018-09-17T18:12:38.052Z,3.22
2018-09-17T18:15:06.144Z,3.77
2018-09-17T18:17:34.315Z,3.70
2018-09-17T18:20:02.436Z,3.58
2018-09-17T18:22:30.516Z,2.95
2018-09-17T18:24:58.620Z,3.57
2018-09-17T18:27:26.756Z,3.10
2018-09-17T18:29:54.792Z,3.60
2018-09-17T18:32:22.863Z,3.20
2018-09-17T18:34:50.997Z,3.30
2018-09-17T18:37:19.096Z,3.33
2018-09-17T18:39:47.428Z,3.55
2018-09-17T18:42:15.303Z,3.45
2018-09-17T18:44:43.436Z,3.47
2018-09-17T18:47:11.505Z,3.27
2018-09-17T18:49:39.780Z,3.80
2018-09-17T18:52:07.893Z,3.50
2018-09-17T18:54:36.029Z,3.60
2018-09-17T18:57:04.145Z,3.58
2018-09-17T18:59:38.069Z,3.55
2018-09-17T19:02:06.348Z,4.28
2018-09-17T19:04:34.663Z,3.60
2018-09-17T19:07:02.894Z,4.08
2018-09-17T19:09:36.321Z,3.10
2018-09-17T19:12:04.621Z,3.33
2018-09-17T19:14:38.100Z,3.63
2018-09-17T19:17:11.541Z,3.35
2018-09-17T19:19:39.694Z,3.80
2018-09-17T19:22:13.164Z,3.62
2018-09-17T19:24:41.216Z,3.07
2018-09-17T19:27:09.995Z,3.95
2018-09-17T19:29:38.067Z,3.08
2018-09-17T19:32:06.338Z,3.08
2018-09-17T19:34:34.443Z,3.20
2018-09-17T19:37:07.954Z,3.80
2018-09-17T19:39:41.408Z,3.90
2018-09-17T19:42:09.516Z,4.03
2018-09-17T19:44:37.641Z,3.70
2018-09-17T19:47:05.864Z,4.28
2018-09-17T19:49:34.050Z,4.60
2018-09-17T19:52:07.634Z,3.65
2018-09-17T19:54:35.709Z,4.17
2018-09-17T19:57:08.050Z,5.20
2018-09-17T19:59:41.660Z,4.75
2018-09-17T20:02:09.911Z,4.30
2018-09-17T20:04:43.320Z,4.90
2018-09-17T20:07:11.520Z,4.60
2018-09-17T20:09:39.715Z,3.72
2018-09-17T20:12:07.821Z,4.08
2018-09-17T20:14:36.327Z,4.87
2018-09-17T20:17:04.573Z,4.58
2018-09-17T20:19:32.751Z,5.00
2018-09-17T20:22:00.905Z,3.98
2018-09-17T20:24:28.975Z,4.03
2018-09-17T20:26:57.077Z,4.67
2018-09-17T20:29:25.139Z,4.90
2018-09-17T20:31:53.247Z,5.35
2018-09-17T20:34:21.349Z,5.50
2018-09-17T20:36:49.721Z,6.25
2018-09-17T20:39:17.803Z,5.08
2018-09-17T20:41:45.900Z,5.15
2018-09-17T20:44:13.979Z,5.53
2018-09-17T20:46:42.039Z,5.65
2018-09-17T20:49:10.153Z,5.22
2018-09-17T20:51:38.231Z,5.28
2018-09-17T20:54:06.370Z,5.80
2018-09-17T20:56:34.491Z,4.80
2018-09-17T20:59:02.601Z,6.17
2018-09-17T21:01:31.407Z,5.15
2018-09-17T21:03:59.423Z,5.07
2018-09-17T21:06:27.529Z,4.17
2018-09-17T21:08:55.609Z,4.15
2018-09-17T21:11:23.692Z,3.80
2018-09-17T21:13:51.809Z,5.08
2018-09-17T21:16:19.904Z,3.87
2018-09-17T21:18:48.074Z,4.37
2018-09-17T21:21:16.149Z,4.00
2018-09-17T21:23:44.291Z,4.35
2018-09-17T21:26:12.439Z,4.85
2018-09-17T21:28:41.061Z,5.03
2018-09-17T21:31:09.214Z,4.67
2018-09-17T21:33:37.270Z,4.75
2018-09-17T21:36:05.364Z,4.67
2018-09-17T21:38:33.460Z,4.55
2018-09-17T21:41:01.546Z,4.33
2018-09-17T21:43:29.656Z,4.80
2018-09-17T21:45:57.755Z,4.20
2018-09-17T21:48:25.908Z,4.12
2018-09-17T21:50:53.992Z,4.08
2018-09-17T21:53:22.067Z,4.33
2018-09-17T21:55:50.186Z,4.13
2018-09-17T21:58:18.271Z,4.80
2018-09-17T22:00:51.757Z,5.05
2018-09-17T22:03:19.811Z,5.53
2018-09-17T22:05:47.915Z,4.57
2018-09-17T22:08:15.982Z,4.22
2018-09-17T22:10:44.099Z,4.15
2018-09-17T22:13:12.161Z,3.98
2018-09-17T22:15:40.247Z,3.97
2018-09-17T22:18:08.362Z,3.90
2018-09-17T22:20:36.459Z,4.67
2018-09-17T22:23:04.549Z,4.47
2018-09-17T22:25:32.675Z,4.58
2018-09-17T22:28:00.815Z,4.60
2018-09-17T22:30:28.920Z,3.87
2018-09-17T22:32:57.047Z,4.70
2018-09-17T22:35:25.163Z,3.93
2018-09-17T22:37:53.272Z,4.70
2018-09-17T22:40:21.390Z,5.20
2018-09-17T22:42:49.503Z,4.60
2018-09-17T22:45:17.621Z,4.43
2018-09-17T22:47:45.696Z,4.20
2018-09-17T22:50:13.799Z,4.00
2018-09-17T22:52:41.916Z,4.10
2018-09-17T22:55:10.019Z,4.17
2018-09-17T22:57:38.161Z,4.42
2018-09-17T23:00:06.332Z,4.30
2018-09-17T23:02:34.641Z,4.60
2018-09-17T23:05:02.758Z,3.73
2018-09-17T23:07:30.862Z,4.10
2018-09-17T23:09:58.977Z,4.00
2018-09-17T23:12:27.074Z,4.62
2018-09-17T23:14:55.221Z,4.37
2018-09-17T23:17:23.322Z,4.95
2018-09-17T23:19:51.457Z,4.42
2018-09-17T23:22:20.088Z,5.00
2018-09-17T23:24:48.191Z,4.40
2018-09-17T23:27:16.295Z,5.42
2018-09-17T23:29:44.407Z,4.92
2018-09-17T23:32:12.494Z,4.90
2018-09-17T23:34:40.578Z,4.70
2018-09-17T23:37:08.656Z,4.95
2018-09-17T23:39:36.751Z,5.47
2018-09-17T23:42:04.808Z,4.97
2018-09-17T23:44:32.908Z,4.30
2018-09-17T23:47:01.040Z,4.85
2018-09-17T23:49:29.165Z,4.70
2018-09-17T23:51:57.263Z,4.53
2018-09-17T23:54:25.407Z,4.80
2018-09-17T23:56:53.527Z,5.33
2018-09-17T23:59:21.649Z,4.47
